Time;durP1;ratioP1;P1;durP2;ratioP2;P2;SDS_P1;SDS_P2;PMS_P1;PMS_P2;Temp;Humidity;BMP_temperature;BMP_pressure;BME280_temperature;BME280_humidity;BME280_pressure;Samples;Min_cycle;Max_cycle;Signal;HPM_P1;HPM_P2
2022/03/05 00:00:43;;;;;;;1.90;1.80;;;1.40;99.90;;;;;;5012275;28;20411;-66
2022/03/05 00:03:09;;;;;;;2.63;2.43;;;1.30;99.90;;;;;;5012140;28;20175;-66
2022/03/05 00:05:35;;;;;;;4.73;2.50;;;1.30;99.90;;;;;;5011959;28;20211;-66
2022/03/05 00:08:03;;;;;;;2.27;2.07;;;1.20;99.90;;;;;;5012162;28;20446;-66
2022/03/05 00:10:30;;;;;;;4.03;3.77;;;1.20;99.90;;;;;;5012164;28;20410;-66
2022/03/05 00:12:55;;;;;;;2.40;2.20;;;1.20;99.90;;;;;;4994360;28;20458;-66
2022/03/05 00:15:23;;;;;;;2.83;2.13;;;1.10;99.90;;;;;;5011936;28;20790;-66
2022/03/05 00:17:49;;;;;;;4.40;2.50;;;1.00;99.90;;;;;;5012066;28;20215;-66
2022/03/05 00:20:15;;;;;;;2.03;1.93;;;1.00;99.90;;;;;;4994388;28;20734;-66
2022/03/05 00:22:40;;;;;;;2.20;1.87;;;0.90;99.90;;;;;;5012094;28;20173;-66
2022/03/05 00:25:06;;;;;;;2.10;1.73;;;0.90;99.90;;;;;;5011946;28;20442;-66
2022/03/05 00:27:32;;;;;;;3.90;3.23;;;0.90;99.90;;;;;;5011859;28;20179;-66
2022/03/05 00:29:57;;;;;;;3.03;2.83;;;0.80;99.90;;;;;;4994251;28;20191;-66
2022/03/05 00:32:23;;;;;;;2.07;1.27;;;0.80;99.90;;;;;;5011668;28;20251;-66
2022/03/05 00:34:48;;;;;;;1.70;1.60;;;0.70;99.90;;;;;;5011710;28;20211;-66
2022/03/05 00:37:14;;;;;;;2.30;2.20;;;0.70;99.90;;;;;;5011824;28;20179;-66
2022/03/05 00:39:39;;;;;;;3.17;2.90;;;0.70;99.90;;;;;;5011787;28;20172;-66
2022/03/05 00:42:05;;;;;;;2.83;1.47;;;0.70;99.90;;;;;;4994056;28;20540;-66
2022/03/05 00:44:31;;;;;;;1.83;1.73;;;0.60;99.90;;;;;;5011882;28;20191;-66
2022/03/05 00:46:57;;;;;;;2.53;2.10;;;0.60;99.90;;;;;;5011794;28;20178;-67
2022/03/05 00:49:22;;;;;;;4.17;2.30;;;0.60;99.90;;;;;;5011926;28;20909;-66
2022/03/05 00:51:48;;;;;;;1.73;1.50;;;0.50;99.90;;;;;;5011707;28;20286;-66
2022/03/05 00:54:14;;;;;;;3.23;2.10;;;0.50;99.90;;;;;;5011615;28;20215;-67
2022/03/05 00:56:39;;;;;;;2.83;2.63;;;0.50;99.90;;;;;;5011554;28;20415;-66
2022/03/05 00:59:05;;;;;;;1.67;1.57;;;0.50;99.90;;;;;;4993991;28;20168;-66
2022/03/05 01:01:30;;;;;;;4.93;2.73;;;0.40;99.90;;;;;;5011490;28;20638;-66
2022/03/05 01:03:56;;;;;;;3.90;3.60;;;0.40;99.90;;;;;;5014001;28;20200;-66
2022/03/05 01:06:22;;;;;;;16.10;3.60;;;0.40;99.90;;;;;;5015463;28;20179;-67
2022/03/05 01:08:47;;;;;;;11.50;2.43;;;0.40;99.90;;;;;;5015648;28;20266;-67
2022/03/05 01:11:16;;;;;;;2.90;1.80;;;0.40;99.90;;;;;;5015562;28;20627;-67
2022/03/05 01:13:42;;;;;;;2.50;2.30;;;0.30;99.90;;;;;;5015174;28;20282;-67
2022/03/05 01:16:08;;;;;;;4.40;2.57;;;0.30;99.90;;;;;;5015329;28;20419;-65
2022/03/05 01:18:34;;;;;;;2.33;2.23;;;0.30;99.90;;;;;;5015540;28;20458;-65
2022/03/05 01:20:59;;;;;;;4.17;2.13;;;0.30;99.90;;;;;;5015547;28;20168;-65
2022/03/05 01:23:24;;;;;;;1.80;1.70;;;0.30;99.90;;;;;;5015369;28;20784;-65
2022/03/05 01:25:50;;;;;;;3.10;2.10;;;0.30;99.90;;;;;;5015288;28;20176;-66
2022/03/05 01:28:15;;;;;;;3.00;2.20;;;0.30;99.90;;;;;;5015439;28;20172;-66
2022/03/05 01:30:41;;;;;;;3.47;1.80;;;0.30;99.90;;;;;;5015313;28;20187;-66
2022/03/05 01:33:06;;;;;;;2.50;2.30;;;0.30;99.90;;;;;;5015445;28;20204;-68
2022/03/05 01:35:32;;;;;;;7.87;2.60;;;0.30;99.90;;;;;;5015037;28;20190;-66
2022/03/05 01:37:57;;;;;;;3.73;1.87;;;0.30;99.90;;;;;;5015134;28;20190;-66
2022/03/05 01:40:23;;;;;;;6.27;3.70;;;0.30;99.90;;;;;;5015023;28;20215;-66
2022/03/05 01:42:49;;;;;;;2.20;2.00;;;0.30;99.90;;;;;;5014871;28;20191;-65
2022/03/05 01:45:14;;;;;;;2.27;2.03;;;0.30;99.90;;;;;;5014723;28;20187;-65
2022/03/05 01:47:40;;;;;;;3.47;2.50;;;0.30;99.90;;;;;;5014942;28;20400;-65
2022/03/05 01:50:07;;;;;;;3.60;2.13;;;0.30;99.90;;;;;;5015214;28;20191;-66
2022/03/05 01:52:32;;;;;;;2.97;1.80;;;0.30;99.90;;;;;;5014790;28;20183;-66
2022/03/05 01:54:58;;;;;;;3.30;2.60;;;0.20;99.90;;;;;;5014679;28;20423;-65
2022/03/05 01:57:23;;;;;;;2.03;1.90;;;0.20;99.90;;;;;;5014732;28;20168;-65
2022/03/05 01:59:49;;;;;;;5.50;2.40;;;0.10;99.90;;;;;;5014685;28;20204;-65
2022/03/05 02:02:15;;;;;;;2.43;2.10;;;0.10;99.90;;;;;;5014436;28;20599;-67
2022/03/05 02:04:41;;;;;;;2.97;2.67;;;0.10;99.90;;;;;;5014319;28;20271;-66
2022/03/05 02:07:07;;;;;;;1.80;1.70;;;0.10;99.90;;;;;;5014458;28;20842;-66
2022/03/05 02:09:33;;;;;;;6.60;2.93;;;0.10;99.90;;;;;;5014494;28;20570;-66
2022/03/05 02:11:58;;;;;;;2.43;2.23;;;0.10;99.90;;;;;;5014321;28;20418;-66
2022/03/05 02:14:24;;;;;;;2.03;1.87;;;0.10;99.90;;;;;;5011467;28;20649;-65
2022/03/05 02:16:49;;;;;;;4.23;2.70;;;0.00;99.90;;;;;;5014538;28;20180;-66
2022/03/05 02:19:15;;;;;;;2.27;2.17;;;0.00;99.90;;;;;;5014573;28;20635;-66
2022/03/05 02:21:40;;;;;;;2.60;1.90;;;0.00;99.90;;;;;;5014407;28;20199;-66
2022/03/05 02:24:06;;;;;;;5.70;3.03;;;-0.10;99.90;;;;;;5014443;28;20318;-65
2022/03/05 02:26:31;;;;;;;2.73;2.53;;;-0.10;99.90;;;;;;5014147;28;20165;-66
2022/03/05 02:28:57;;;;;;;4.00;3.40;;;-0.10;99.90;;;;;;5014564;28;20164;-66
2022/03/05 02:31:23;;;;;;;1.40;1.30;;;-0.20;99.90;;;;;;5014796;28;20575;-66
2022/03/05 02:33:52;;;;;;;12.80;4.30;;;-0.20;99.90;;;;;;5015062;28;20207;-67
2022/03/05 02:36:19;;;;;;;2.20;1.60;;;-0.20;99.90;;;;;;5018077;28;20399;-66
2022/03/05 02:38:44;;;;;;;3.10;1.90;;;-0.20;99.90;;;;;;5017189;28;20431;-66
2022/03/05 02:41:10;;;;;;;2.20;2.00;;;-0.30;99.90;;;;;;5015072;28;20832;-66
2022/03/05 02:43:36;;;;;;;2.37;2.17;;;-0.30;99.90;;;;;;5013876;28;20176;-67
2022/03/05 02:46:01;;;;;;;2.83;2.60;;;-0.30;99.90;;;;;;5014083;28;20218;-66
2022/03/05 02:48:27;;;;;;;2.40;2.10;;;-0.30;99.90;;;;;;5013903;28;20414;-66
2022/03/05 02:50:53;;;;;;;2.60;2.20;;;-0.30;99.90;;;;;;5013835;28;20175;-66
2022/03/05 02:53:18;;;;;;;2.37;2.10;;;-0.40;99.90;;;;;;5013449;28;20204;-66
2022/03/05 02:55:44;;;;;;;2.70;2.10;;;-0.30;99.90;;;;;;5013622;28;20494;-66
2022/03/05 02:58:10;;;;;;;5.70;2.70;;;-0.30;99.90;;;;;;5013529;28;20172;-66
2022/03/05 03:00:35;;;;;;;3.80;2.87;;;-0.30;99.90;;;;;;4995944;28;20408;-66
2022/03/05 03:03:02;;;;;;;4.30;2.60;;;-0.40;99.90;;;;;;5013345;28;20168;-66
2022/03/05 03:05:27;;;;;;;2.97;2.77;;;-0.40;99.90;;;;;;5013695;28;20212;-67
2022/03/05 03:07:53;;;;;;;3.47;3.27;;;-0.40;99.90;;;;;;5013205;28;20514;-67
2022/03/05 03:10:18;;;;;;;2.03;1.90;;;-0.40;99.90;;;;;;5013450;28;20619;-67
2022/03/05 03:12:44;;;;;;;3.87;3.57;;;-0.40;99.90;;;;;;5013184;28;20302;-66
2022/03/05 03:15:12;;;;;;;3.07;2.80;;;-0.40;99.90;;;;;;5013108;28;20200;-67
2022/03/05 03:17:44;;;;;;;3.40;1.60;;;-0.50;99.90;;;;;;5013328;28;20172;-67
2022/03/05 03:20:11;;;;;;;3.27;2.53;;;-0.50;99.90;;;;;;5013208;28;20408;-67
2022/03/05 03:22:37;;;;;;;1.40;1.30;;;-0.50;99.90;;;;;;5012962;28;20530;-67
2022/03/05 03:25:04;;;;;;;1.83;1.73;;;-0.50;99.90;;;;;;5012853;28;20518;-66
2022/03/05 03:27:29;;;;;;;17.80;2.20;;;-0.50;99.90;;;;;;5012873;28;20414;-67
2022/03/05 03:29:55;;;;;;;2.37;2.27;;;-0.50;99.90;;;;;;5013116;28;20841;-67
2022/03/05 03:32:20;;;;;;;3.73;2.70;;;-0.50;99.90;;;;;;5013465;28;20168;-67
2022/03/05 03:34:46;;;;;;;5.30;2.77;;;-0.50;99.90;;;;;;5012954;28;20291;-67
2022/03/05 03:37:11;;;;;;;1.70;1.60;;;-0.60;99.90;;;;;;5012725;28;20652;-67
2022/03/05 03:39:37;;;;;;;2.63;2.50;;;-0.60;99.90;;;;;;5012775;28;20251;-67
2022/03/05 03:42:02;;;;;;;3.50;2.53;;;-0.50;99.90;;;;;;5012602;28;20222;-67
2022/03/05 03:44:28;;;;;;;1.97;1.83;;;-0.60;99.90;;;;;;5012483;28;20275;-67
2022/03/05 03:46:54;;;;;;;2.43;2.20;;;-0.60;99.90;;;;;;5012608;28;20247;-67
2022/03/05 03:49:19;;;;;;;3.33;3.13;;;-0.50;99.90;;;;;;4995158;28;20176;-67
2022/03/05 03:51:45;;;;;;;2.60;2.50;;;-0.60;99.90;;;;;;5012398;28;20714;-67
2022/03/05 03:54:11;;;;;;;3.70;1.87;;;-0.70;99.90;;;;;;5012387;28;20258;-67
2022/03/05 03:56:36;;;;;;;3.57;2.07;;;-0.60;99.90;;;;;;5012395;28;20200;-67
2022/03/05 03:59:02;;;;;;;6.60;2.40;;;-0.60;99.90;;;;;;5012315;28;20179;-67
2022/03/05 04:01:27;;;;;;;5.00;2.70;;;-0.60;99.90;;;;;;5012350;28;20172;-67
2022/03/05 04:03:53;;;;;;;3.07;2.87;;;-0.70;99.90;;;;;;5012011;28;20851;-67
2022/03/05 04:06:18;;;;;;;6.90;3.17;;;-0.70;99.90;;;;;;5012152;28;20544;-67
2022/03/05 04:08:44;;;;;;;2.17;2.07;;;-0.70;99.90;;;;;;5012152;28;20216;-67
2022/03/05 04:11:19;;;;;;;2.47;2.30;;;-0.70;99.90;;;;;;5012286;28;20180;-67
2022/03/05 04:13:47;;;;;;;3.37;2.97;;;-0.70;99.90;;;;;;5011901;28;20616;-67
2022/03/05 04:16:13;;;;;;;3.63;1.57;;;-0.70;99.90;;;;;;5012132;28;20910;-67
2022/03/05 04:18:38;;;;;;;3.73;1.23;;;-0.70;99.90;;;;;;5011898;28;20417;-67
2022/03/05 04:21:06;;;;;;;2.37;2.27;;;-0.80;99.90;;;;;;5012158;28;20498;-67
2022/03/05 04:23:32;;;;;;;5.00;3.60;;;-0.80;99.90;;;;;;5012144;28;20180;-67
2022/03/05 04:25:57;;;;;;;1.60;1.50;;;-0.80;99.90;;;;;;5012034;28;20924;-67
2022/03/05 04:28:23;;;;;;;1.60;1.50;;;-0.80;99.90;;;;;;5012199;28;20423;-67
2022/03/05 04:30:48;;;;;;;1.83;1.60;;;-0.80;99.90;;;;;;5012217;28;20173;-67
2022/03/05 04:33:14;;;;;;;4.70;1.80;;;-0.80;99.90;;;;;;4994426;28;20220;-67
2022/03/05 04:35:40;;;;;;;3.20;1.80;;;-0.80;99.90;;;;;;5011912;28;20180;-67
2022/03/05 04:38:05;;;;;;;3.17;2.80;;;-0.80;99.90;;;;;;5011368;28;20207;-67
2022/03/05 04:40:31;;;;;;;2.17;2.07;;;-0.80;99.90;;;;;;5012048;28;20195;-67
2022/03/05 04:42:56;;;;;;;4.97;2.80;;;-0.80;99.90;;;;;;5012096;28;20540;-67
2022/03/05 04:45:22;;;;;;;5.90;3.20;;;-0.80;99.90;;;;;;5011927;28;20638;-67
2022/03/05 04:47:47;;;;;;;25.87;2.53;;;-0.80;99.90;;;;;;5011844;28;20255;-68
2022/03/05 04:50:13;;;;;;;4.70;1.73;;;-0.80;99.90;;;;;;5011875;28;20276;-67
2022/03/05 04:52:39;;;;;;;1.83;1.43;;;-0.90;99.90;;;;;;5012051;28;20173;-67
2022/03/05 04:55:06;;;;;;;4.30;2.33;;;-0.90;99.90;;;;;;5011682;28;20516;-67
2022/03/05 04:57:31;;;;;;;2.67;2.30;;;-0.90;99.90;;;;;;5011668;28;20175;-67
2022/03/05 04:59:57;;;;;;;3.13;2.87;;;-1.00;99.90;;;;;;5011687;28;20890;-67
2022/03/05 05:02:22;;;;;;;2.30;2.20;;;-0.90;99.90;;;;;;5011426;28;20252;-67
2022/03/05 05:04:48;;;;;;;3.83;2.30;;;-1.00;99.90;;;;;;5011425;28;20204;-67
2022/03/05 05:07:14;;;;;;;2.23;2.13;;;-1.00;99.90;;;;;;5011687;28;20176;-67
2022/03/05 05:09:40;;;;;;;1.80;1.60;;;-1.00;99.90;;;;;;4993922;28;20172;-67
2022/03/05 05:12:06;;;;;;;5.30;2.67;;;-1.00;99.90;;;;;;5011567;28;20172;-67
2022/03/05 05:14:32;;;;;;;1.70;1.60;;;-1.00;99.90;;;;;;5011142;28;20467;-66
2022/03/05 05:16:57;;;;;;;4.03;3.17;;;-1.00;99.90;;;;;;5011257;28;20869;-66
2022/03/05 05:19:27;;;;;;;4.13;2.77;;;-1.00;99.90;;;;;;5011333;28;20164;-67
2022/03/05 05:21:55;;;;;;;2.17;2.07;;;-1.00;99.90;;;;;;5011166;28;20540;-67
2022/03/05 05:24:22;;;;;;;3.33;2.30;;;-1.00;99.90;;;;;;5011575;28;20445;-67
2022/03/05 05:26:47;;;;;;;4.30;2.40;;;-1.00;99.90;;;;;;5011252;28;20473;-66
2022/03/05 05:29:13;;;;;;;4.23;3.83;;;-1.10;99.90;;;;;;4993851;28;20407;-67
2022/03/05 05:31:38;;;;;;;2.53;2.37;;;-1.10;99.90;;;;;;5011212;28;20215;-67
2022/03/05 05:34:04;;;;;;;2.20;1.73;;;-1.10;99.90;;;;;;5011328;28;20204;-67
2022/03/05 05:36:29;;;;;;;2.97;2.50;;;-1.10;99.90;;;;;;5011083;28;20169;-67
2022/03/05 05:38:55;;;;;;;2.30;2.20;;;-1.00;99.90;;;;;;5011371;28;20260;-67
2022/03/05 05:41:20;;;;;;;3.50;3.30;;;-1.00;99.90;;;;;;5011132;28;20263;-67
2022/03/05 05:43:46;;;;;;;3.23;2.50;;;-1.10;99.90;;;;;;5011059;28;20196;-67
2022/03/05 05:46:11;;;;;;;3.97;2.47;;;-1.10;99.90;;;;;;5010989;28;20222;-67
2022/03/05 05:48:37;;;;;;;2.53;2.33;;;-1.10;99.90;;;;;;5011459;28;20179;-67
2022/03/05 05:51:03;;;;;;;2.87;2.67;;;-1.10;99.90;;;;;;4996974;28;20303;-67
2022/03/05 05:53:29;;;;;;;3.23;2.03;;;-1.00;99.90;;;;;;5014536;28;20199;-67
2022/03/05 05:55:54;;;;;;;5.27;2.20;;;-1.10;99.90;;;;;;5014599;28;20402;-67
2022/03/05 05:58:21;;;;;;;3.37;2.20;;;-1.00;99.90;;;;;;5014589;28;20241;-67
2022/03/05 06:00:47;;;;;;;2.43;2.33;;;-1.10;99.90;;;;;;5014633;28;20168;-67
2022/03/05 06:03:13;;;;;;;4.30;2.43;;;-1.10;99.90;;;;;;5014319;28;20415;-67
2022/03/05 06:05:38;;;;;;;7.27;3.07;;;-1.00;99.90;;;;;;5014178;28;20446;-67
2022/03/05 06:08:04;;;;;;;7.77;2.63;;;-1.00;99.90;;;;;;5014504;28;20540;-67
2022/03/05 06:10:30;;;;;;;3.83;3.47;;;-1.00;99.90;;;;;;5014481;28;20226;-67
2022/03/05 06:12:55;;;;;;;2.70;2.47;;;-1.00;99.90;;;;;;5014251;28;20192;-66
2022/03/05 06:15:21;;;;;;;2.13;2.00;;;-1.00;99.90;;;;;;5014130;28;20246;-68
2022/03/05 06:17:46;;;;;;;2.90;2.53;;;-1.00;99.90;;;;;;5014553;28;20271;-68
2022/03/05 06:20:12;;;;;;;3.10;2.03;;;-0.90;99.90;;;;;;5014539;28;20164;-67
2022/03/05 06:22:38;;;;;;;3.17;2.87;;;-0.90;99.90;;;;;;5014459;28;20172;-67
2022/03/05 06:25:05;;;;;;;2.63;1.33;;;-0.90;99.90;;;;;;5015077;28;20193;-67
2022/03/05 06:27:31;;;;;;;3.10;2.80;;;-0.80;99.90;;;;;;5014831;28;20400;-67
2022/03/05 06:29:56;;;;;;;3.03;2.87;;;-0.80;99.90;;;;;;5014515;28;20433;-67
2022/03/05 06:32:22;;;;;;;3.03;2.60;;;-0.70;99.90;;;;;;5014694;28;20165;-67
2022/03/05 06:34:47;;;;;;;2.30;2.03;;;-0.60;99.90;;;;;;5013881;28;20636;-67
2022/03/05 06:37:13;;;;;;;2.20;2.10;;;-0.60;99.90;;;;;;5014020;28;20168;-67
2022/03/05 06:39:41;;;;;;;14.20;3.80;;;-0.50;99.90;;;;;;4996658;28;20183;-67
2022/03/05 06:42:06;;;;;;;2.03;1.80;;;-0.40;99.90;;;;;;5014123;28;20188;-67
2022/03/05 06:44:32;;;;;;;2.77;2.43;;;-0.30;99.90;;;;;;5013762;28;20439;-67
2022/03/05 06:46:58;;;;;;;4.00;3.67;;;-0.20;99.90;;;;;;5014178;28;20447;-67
2022/03/05 06:49:24;;;;;;;4.00;3.40;;;0.00;99.90;;;;;;5013733;28;20909;-67
2022/03/05 06:51:49;;;;;;;3.97;3.67;;;0.40;99.90;;;;;;5013651;28;20485;-67
2022/03/05 06:54:15;;;;;;;7.87;4.60;;;1.20;99.90;;;;;;5008348;28;20262;-67
2022/03/05 06:56:41;;;;;;;4.83;3.13;;;1.80;99.90;;;;;;5012218;28;20184;-67
2022/03/05 06:59:06;;;;;;;6.53;4.50;;;2.00;99.90;;;;;;5010823;28;20200;-66
2022/03/05 07:01:31;;;;;;;6.20;5.70;;;2.20;99.90;;;;;;5012881;28;20658;-69
2022/03/05 07:03:57;;;;;;;5.57;4.97;;;2.30;99.90;;;;;;5013124;28;20215;-66
2022/03/05 07:06:22;;;;;;;6.57;5.23;;;2.50;99.90;;;;;;5013440;28;20168;-66
2022/03/05 07:08:48;;;;;;;7.03;3.13;;;3.40;99.90;;;;;;5013624;28;20187;-66
2022/03/05 07:11:14;;;;;;;9.07;3.57;;;3.60;99.90;;;;;;4998237;28;20181;-67
2022/03/05 07:13:39;;;;;;;5.53;5.03;;;3.70;99.90;;;;;;4993532;28;20215;-68
2022/03/05 07:16:05;;;;;;;3.90;2.80;;;3.60;99.90;;;;;;4998566;28;20419;-67
2022/03/05 07:18:31;;;;;;;5.73;4.07;;;3.90;99.90;;;;;;5013191;28;20171;-67
2022/03/05 07:20:57;;;;;;;5.37;3.60;;;4.70;99.90;;;;;;5013545;28;20491;-67
2022/03/05 07:23:23;;;;;;;7.23;2.83;;;4.80;99.90;;;;;;5013160;28;20172;-66
2022/03/05 07:25:49;;;;;;;6.70;3.73;;;4.50;99.90;;;;;;5013091;28;20781;-67
2022/03/05 07:28:14;;;;;;;9.40;3.17;;;4.30;99.90;;;;;;5012926;28;20439;-66
2022/03/05 07:30:42;;;;;;;7.13;2.47;;;4.70;99.90;;;;;;5013203;28;20176;-67
2022/03/05 07:33:08;;;;;;;4.17;3.30;;;5.00;99.90;;;;;;5014267;28;20200;-67
2022/03/05 07:35:34;;;;;;;3.37;2.53;;;4.80;99.90;;;;;;5013148;28;20566;-67
2022/03/05 07:37:59;;;;;;;4.23;2.73;;;4.80;99.90;;;;;;5012630;28;20468;-67
2022/03/05 07:40:25;;;;;;;3.40;2.90;;;5.20;99.90;;;;;;5012693;28;20409;-67
2022/03/05 07:42:51;;;;;;;3.27;2.97;;;6.00;99.90;;;;;;5012545;28;20172;-67
2022/03/05 07:45:16;;;;;;;3.40;2.27;;;6.50;99.90;;;;;;5012549;28;20429;-67
2022/03/05 07:47:42;;;;;;;4.37;2.90;;;6.90;99.90;;;;;;5012956;28;20636;-67
2022/03/05 07:50:08;;;;;;;8.23;3.20;;;6.60;99.90;;;;;;5012765;28;20164;-67
2022/03/05 07:52:33;;;;;;;4.67;4.27;;;6.80;99.90;;;;;;5012581;28;20165;-67
2022/03/05 07:54:59;;;;;;;3.20;2.50;;;6.60;99.90;;;;;;5012032;28;20914;-67
2022/03/05 07:57:24;;;;;;;5.10;2.93;;;7.30;99.90;;;;;;4994656;28;20176;-67
2022/03/05 07:59:50;;;;;;;4.53;4.13;;;6.90;99.90;;;;;;5012414;28;20188;-66
2022/03/05 08:02:16;;;;;;;5.43;4.43;;;6.40;99.90;;;;;;5012173;28;20196;-66
2022/03/05 08:04:43;;;;;;;4.60;3.00;;;6.60;99.90;;;;;;5012118;28;20212;-66
2022/03/05 08:07:09;;;;;;;5.03;3.17;;;6.80;99.90;;;;;;5012587;28;20227;-67
2022/03/05 08:09:38;;;;;;;5.93;2.87;;;7.40;99.90;;;;;;5012325;28;20407;-68
2022/03/05 08:12:04;;;;;;;3.90;3.43;;;7.80;99.90;;;;;;5012141;28;20539;-67
2022/03/05 08:14:29;;;;;;;6.50;3.80;;;8.10;99.90;;;;;;5012066;28;20459;-66
2022/03/05 08:16:55;;;;;;;4.77;2.90;;;7.80;99.90;;;;;;5012062;28;20420;-66
2022/03/05 08:19:20;;;;;;;5.33;3.40;;;7.40;99.90;;;;;;5012286;28;20176;-66
2022/03/05 08:21:46;;;;;;;4.83;3.90;;;7.60;99.90;;;;;;5012056;28;20176;-68
2022/03/05 08:24:11;;;;;;;4.03;3.30;;;7.80;99.90;;;;;;5012029;28;20206;-67
2022/03/05 08:26:37;;;;;;;5.20;3.27;;;7.80;99.90;;;;;;5012240;28;20164;-67
2022/03/05 08:29:03;;;;;;;7.50;4.33;;;8.00;99.90;;;;;;5012123;28;20179;-66
2022/03/05 08:31:31;;;;;;;5.50;3.67;;;8.10;99.90;;;;;;5012141;28;20183;-66
2022/03/05 08:34:01;;;;;;;5.37;3.90;;;8.40;99.90;;;;;;5012161;28;20506;-66
2022/03/05 08:36:27;;;;;;;5.13;4.10;;;7.80;99.90;;;;;;5011883;28;20450;-66
2022/03/05 08:38:53;;;;;;;3.67;3.33;;;7.50;99.90;;;;;;5011899;28;20407;-67
2022/03/05 08:41:18;;;;;;;4.50;3.80;;;7.70;99.90;;;;;;5011795;28;20425;-67
2022/03/05 08:43:44;;;;;;;6.33;3.90;;;7.70;99.90;;;;;;5011689;28;20193;-66
2022/03/05 08:46:09;;;;;;;5.77;3.30;;;8.30;99.90;;;;;;5011721;28;20635;-65
2022/03/05 08:48:35;;;;;;;6.50;3.30;;;8.70;99.90;;;;;;5011541;28;20622;-65
2022/03/05 08:51:01;;;;;;;6.87;4.20;;;9.70;99.90;;;;;;5011616;28;20177;-68
2022/03/05 08:53:27;;;;;;;5.13;3.50;;;10.40;99.90;;;;;;5011185;28;20194;-65
2022/03/05 08:55:52;;;;;;;3.80;3.50;;;9.10;99.90;;;;;;5011002;28;20403;-66
2022/03/05 08:58:19;;;;;;;6.63;4.57;;;9.70;99.90;;;;;;5011378;28;20181;-65
2022/03/05 09:00:45;;;;;;;4.00;3.60;;;9.00;99.90;;;;;;5010935;28;20409;-68
2022/03/05 09:03:11;;;;;;;5.97;3.87;;;9.70;99.90;;;;;;5010911;28;20418;-67
2022/03/05 09:05:36;;;;;;;5.50;3.73;;;9.30;99.90;;;;;;5046928;23;20609;-70
2022/03/05 09:08:02;;;;;;;5.50;4.17;;;8.80;99.90;;;;;;5031696;28;20537;-70
2022/03/05 09:10:27;;;;;;;4.47;4.00;;;8.40;99.90;;;;;;5031547;28;20224;-70
2022/03/05 09:12:53;;;;;;;6.37;3.73;;;7.20;99.90;;;;;;5031818;28;20168;-70
2022/03/05 09:15:18;;;;;;;4.80;3.60;;;8.60;99.90;;;;;;5032446;28;20661;-70
2022/03/05 09:17:44;;;;;;;4.23;3.30;;;9.60;99.90;;;;;;5032990;28;20334;-70
2022/03/05 09:20:11;;;;;;;3.90;3.40;;;9.10;99.90;;;;;;5031517;28;20544;-70
2022/03/05 09:22:36;;;;;;;4.83;4.30;;;8.90;99.90;;;;;;5031520;28;20433;-70
2022/03/05 09:25:03;;;;;;;6.23;3.40;;;9.00;99.90;;;;;;5033970;28;20438;-70
2022/03/05 09:27:29;;;;;;;7.63;4.27;;;8.80;99.90;;;;;;5036301;28;20601;-70
2022/03/05 09:29:55;;;;;;;4.90;4.00;;;9.30;99.90;;;;;;5035441;28;20436;-70
2022/03/05 09:32:20;;;;;;;4.43;3.77;;;9.30;99.90;;;;;;5035254;28;20806;-70
2022/03/05 09:34:46;;;;;;;3.93;3.10;;;8.90;99.90;;;;;;5034921;28;20208;-70
2022/03/05 09:37:12;;;;;;;4.50;3.57;;;9.30;99.90;;;;;;5035109;28;20173;-70
2022/03/05 09:39:37;;;;;;;5.10;4.07;;;9.10;99.90;;;;;;5034850;28;20250;-71
2022/03/05 09:42:06;;;;;;;5.40;3.87;;;8.70;99.90;;;;;;5035019;28;20211;-71
2022/03/05 09:44:33;;;;;;;5.40;4.60;;;8.50;99.90;;;;;;5034950;28;20287;-70
2022/03/05 09:47:00;;;;;;;5.20;3.40;;;8.30;99.90;;;;;;5035016;28;20417;-71
2022/03/05 09:49:27;;;;;;;7.30;3.57;;;8.20;99.90;;;;;;5035209;28;20917;-71
2022/03/05 09:51:53;;;;;;;7.83;3.90;;;8.00;99.90;;;;;;5035162;28;20402;-70
2022/03/05 09:54:19;;;;;;;5.50;4.03;;;7.90;99.90;;;;;;5034872;28;20465;-70
2022/03/05 09:56:45;;;;;;;8.10;4.83;;;8.10;99.90;;;;;;5035111;28;20168;-70
2022/03/05 09:59:11;;;;;;;6.37;3.50;;;7.90;99.90;;;;;;5035891;28;20398;-70
2022/03/05 10:01:39;;;;;;;7.40;3.50;;;7.30;99.90;;;;;;5036282;28;20493;-70
2022/03/05 10:04:04;;;;;;;6.23;3.50;;;7.00;99.90;;;;;;5035189;28;20176;-70
2022/03/05 10:06:30;;;;;;;3.40;3.10;;;6.40;99.90;;;;;;5034466;28;20417;-71
2022/03/05 10:08:56;;;;;;;3.83;3.50;;;6.50;99.90;;;;;;5034692;28;20167;-71
2022/03/05 10:11:23;;;;;;;4.50;3.23;;;6.20;99.90;;;;;;5034855;28;20194;-71
2022/03/05 10:13:49;;;;;;;6.53;3.20;;;6.00;99.90;;;;;;5034536;28;20511;-71
2022/03/05 10:16:33;;;;;;;4.20;2.63;;;5.80;99.90;;;;;;5034362;28;20813;-71
2022/03/05 10:19:14;;;;;;;3.27;2.97;;;5.60;99.90;;;;;;5034749;28;20542;-71
2022/03/05 10:21:53;;;;;;;11.73;3.70;;;5.70;99.90;;;;;;5035673;28;20474;-71
2022/03/05 10:24:28;;;;;;;5.93;3.40;;;5.80;99.90;;;;;;5034365;28;20422;-69
2022/03/05 10:26:56;;;;;;;3.63;2.93;;;5.40;99.90;;;;;;5034316;28;20406;-70
2022/03/05 10:29:24;;;;;;;3.27;2.97;;;5.40;99.90;;;;;;5034254;28;20403;-71
2022/03/05 10:32:02;;;;;;;5.37;4.30;;;5.50;99.90;;;;;;5034479;28;20964;-71
2022/03/05 10:34:29;;;;;;;4.27;3.40;;;5.60;99.90;;;;;;5034207;28;20583;-71
2022/03/05 10:37:03;;;;;;;5.67;3.00;;;5.40;99.90;;;;;;5015671;28;20406;-70
2022/03/05 10:39:28;;;;;;;4.43;2.77;;;5.20;99.90;;;;;;5034246;28;20970;-71
2022/03/05 10:41:55;;;;;;;3.43;3.03;;;5.10;99.90;;;;;;5034395;28;20402;-71
2022/03/05 10:44:21;;;;;;;2.97;2.77;;;5.10;99.90;;;;;;5033994;28;20289;-71
2022/03/05 10:46:47;;;;;;;4.10;2.97;;;5.30;99.90;;;;;;5034122;28;20410;-71
2022/03/05 10:49:19;;;;;;;5.70;2.63;;;5.40;99.90;;;;;;5033993;28;20777;-71
2022/03/05 10:51:47;;;;;;;7.00;4.57;;;5.50;99.90;;;;;;5034057;28;20406;-71
2022/03/05 10:54:12;;;;;;;4.97;3.70;;;5.50;99.90;;;;;;5033920;28;20541;-71
2022/03/05 10:56:38;;;;;;;8.93;4.00;;;5.60;99.90;;;;;;5033715;28;20958;-71
2022/03/05 10:59:10;;;;;;;3.50;2.53;;;5.50;99.90;;;;;;5017137;28;20176;-72
2022/03/05 11:01:38;;;;;;;7.60;4.77;;;5.30;99.90;;;;;;5035304;28;20164;-73
2022/03/05 11:04:04;;;;;;;3.40;3.10;;;5.20;99.90;;;;;;5036986;28;20912;-72
2022/03/05 11:06:32;;;;;;;4.03;3.67;;;5.00;99.90;;;;;;5036185;28;20436;-71
2022/03/05 11:08:59;;;;;;;4.23;3.37;;;4.90;99.90;;;;;;5035661;28;20410;-71
2022/03/05 11:11:25;;;;;;;2.97;2.70;;;5.10;99.90;;;;;;5035075;28;20501;-71
2022/03/05 11:13:51;;;;;;;3.80;2.60;;;5.10;99.90;;;;;;5034375;28;20975;-71
2022/03/05 11:16:16;;;;;;;2.73;2.53;;;5.20;99.90;;;;;;5033948;28;20465;-72
2022/03/05 11:18:42;;;;;;;4.70;3.23;;;5.40;99.90;;;;;;5033901;28;20249;-70
2022/03/05 11:21:09;;;;;;;3.40;3.10;;;5.30;99.90;;;;;;5033840;28;20179;-71
2022/03/05 11:23:36;;;;;;;4.57;3.90;;;5.30;99.90;;;;;;5033485;28;20415;-72
2022/03/05 11:26:05;;;;;;;3.83;3.43;;;5.20;99.90;;;;;;5033539;28;20459;-71
2022/03/05 11:28:35;;;;;;;3.30;2.70;;;5.10;99.90;;;;;;5033421;28;20418;-72
2022/03/05 11:31:19;;;;;;;3.10;2.80;;;5.00;99.90;;;;;;5033829;28;20415;-71
2022/03/05 11:33:46;;;;;;;5.80;2.50;;;5.00;99.90;;;;;;5033571;28;20450;-73
2022/03/05 11:36:28;;;;;;;4.80;3.00;;;4.90;99.90;;;;;;5033519;28;20430;-72
2022/03/05 11:39:16;;;;;;;5.60;3.37;;;4.90;99.90;;;;;;5033575;28;20983;-71
2022/03/05 11:41:59;;;;;;;3.57;2.30;;;5.00;99.90;;;;;;5033560;28;20798;-72
2022/03/05 11:44:28;;;;;;;3.40;3.20;;;4.90;99.90;;;;;;5033280;28;20441;-72
2022/03/05 11:47:27;;;;;;;6.00;3.63;;;5.00;99.90;;;;;;5033023;28;20414;-72
2022/03/05 11:49:59;;;;;;;6.70;2.70;;;5.10;99.90;;;;;;5033424;28;20418;-71
2022/03/05 11:53:03;;;;;;;2.33;2.07;;;5.30;99.90;;;;;;5033070;28;20422;-71
2022/03/05 11:55:29;;;;;;;5.17;3.77;;;5.40;99.90;;;;;;5033027;28;20426;-71
2022/03/05 11:57:54;;;;;;;4.00;3.30;;;5.30;99.90;;;;;;5033332;28;20962;-71
2022/03/05 12:00:28;;;;;;;7.30;3.40;;;5.60;99.90;;;;;;5033492;28;20171;-71
2022/03/05 12:02:55;;;;;;;3.40;2.93;;;5.80;99.90;;;;;;5033071;28;20237;-71
2022/03/05 12:05:36;;;;;;;4.10;3.50;;;6.00;99.90;;;;;;5032598;28;20441;-71
2022/03/05 12:08:02;;;;;;;2.63;2.40;;;6.20;99.90;;;;;;5033018;28;20433;-71
2022/03/05 12:10:27;;;;;;;3.03;2.80;;;6.20;99.90;;;;;;5032755;28;20402;-71
2022/03/05 12:12:54;;;;;;;2.63;2.43;;;6.10;99.90;;;;;;5032697;28;20414;-71
2022/03/05 12:15:43;;;;;;;2.93;2.73;;;6.00;99.90;;;;;;5032328;28;20229;-71
2022/03/05 12:18:14;;;;;;;2.30;2.10;;;6.10;99.90;;;;;;5032672;28;20812;-71
2022/03/05 12:20:43;;;;;;;6.20;3.20;;;6.30;99.90;;;;;;5032555;28;20406;-71
2022/03/05 12:23:11;;;;;;;35.40;12.60;;;6.00;99.90;;;;;;5032261;28;20552;-71
2022/03/05 12:25:39;;;;;;;7.30;5.27;;;6.00;99.90;;;;;;5032331;28;20796;-70
2022/03/05 12:28:10;;;;;;;23.93;9.53;;;6.00;99.90;;;;;;5032270;28;20406;-70
2022/03/05 12:30:37;;;;;;;4.70;3.70;;;6.10;99.90;;;;;;5032309;28;20468;-70
2022/03/05 12:33:08;;;;;;;4.00;2.67;;;6.20;99.90;;;;;;5032162;28;20430;-71
2022/03/05 12:35:35;;;;;;;2.07;1.80;;;6.50;99.90;;;;;;5031890;28;20496;-71
2022/03/05 12:38:01;;;;;;;4.37;3.60;;;6.60;99.90;;;;;;5031977;28;20476;-70
2022/03/05 12:40:28;;;;;;;10.63;4.40;;;6.50;99.90;;;;;;5032121;28;20406;-70
2022/03/05 12:42:55;;;;;;;3.97;3.57;;;6.20;99.90;;;;;;5031242;28;20917;-70
2022/03/05 12:45:27;;;;;;;9.20;6.07;;;6.30;99.90;;;;;;5031727;28;20743;-70
2022/03/05 12:47:57;;;;;;;12.37;6.23;;;6.00;99.90;;;;;;5031956;28;20406;-70
2022/03/05 12:50:31;;;;;;;10.67;4.63;;;6.00;99.90;;;;;;5032138;28;20438;-70